Time;durP1;ratioP1;P1;durP2;ratioP2;P2;SDS_P1;SDS_P2;PMS_P1;PMS_P2;Temp;Humidity;BMP_temperature;BMP_pressure;BME280_temperature;BME280_humidity;BME280_pressure;Samples;Min_cycle;Max_cycle;Signal;HPM_P1;HPM_P2
2021/01/08 00:00:42;;;;;;;9.85;6.55;;;10.30;62.20;;;;;;5103004;28;20228;-67
2021/01/08 00:03:09;;;;;;;9.75;6.57;;;10.30;62.10;;;;;;5102914;28;20023;-67
2021/01/08 00:05:34;;;;;;;10.55;5.80;;;10.30;62.20;;;;;;5102871;28;20028;-64
2021/01/08 00:08:00;;;;;;;10.10;6.90;;;10.30;62.30;;;;;;5102825;28;20391;-67
2021/01/08 00:10:28;;;;;;;9.52;6.13;;;10.30;62.20;;;;;;5102792;28;20012;-66
2021/01/08 00:12:54;;;;;;;9.98;6.50;;;10.30;62.40;;;;;;5102777;28;20028;-68
2021/01/08 00:15:20;;;;;;;9.32;6.50;;;10.30;62.20;;;;;;5102376;28;20074;-66
2021/01/08 00:17:46;;;;;;;8.82;5.75;;;10.30;62.00;;;;;;5102696;28;20099;-66
2021/01/08 00:20:12;;;;;;;9.88;5.55;;;10.30;62.40;;;;;;5102644;28;20300;-68
2021/01/08 00:22:38;;;;;;;9.63;6.15;;;10.30;62.30;;;;;;5102605;28;20020;-68
2021/01/08 00:25:04;;;;;;;9.45;6.30;;;10.30;62.70;;;;;;5102588;28;20111;-65
2021/01/08 00:27:30;;;;;;;9.05;6.43;;;10.30;62.50;;;;;;5102328;28;20028;-66
2021/01/08 00:29:56;;;;;;;9.07;5.32;;;10.30;62.70;;;;;;5102519;28;20181;-66
2021/01/08 00:32:22;;;;;;;8.60;5.90;;;10.30;62.80;;;;;;5102472;28;20024;-67
2021/01/08 00:34:48;;;;;;;9.32;6.10;;;10.20;62.60;;;;;;5102356;28;20024;-65
2021/01/08 00:37:14;;;;;;;11.30;6.40;;;10.30;62.60;;;;;;5102482;28;20039;-67
2021/01/08 00:39:41;;;;;;;9.45;6.25;;;10.30;62.20;;;;;;5102330;28;20024;-66
2021/01/08 00:42:08;;;;;;;7.70;5.18;;;10.30;62.20;;;;;;5102330;28;20283;-66
2021/01/08 00:44:34;;;;;;;10.38;6.72;;;10.30;61.90;;;;;;5102351;28;20084;-67
2021/01/08 00:46:59;;;;;;;9.77;6.03;;;10.30;62.20;;;;;;5118118;28;20346;-67
2021/01/08 00:49:25;;;;;;;13.27;7.30;;;10.30;62.20;;;;;;5102328;28;20073;-65
2021/01/08 00:51:52;;;;;;;9.70;5.95;;;10.30;62.30;;;;;;5102264;28;20023;-66
2021/01/08 00:54:18;;;;;;;9.45;6.00;;;10.30;62.30;;;;;;5102090;28;20020;-67
2021/01/08 00:56:46;;;;;;;9.05;5.82;;;10.30;62.50;;;;;;5102237;28;20320;-66
2021/01/08 00:59:12;;;;;;;9.20;5.85;;;10.20;62.40;;;;;;5102132;28;20082;-68
2021/01/08 01:01:37;;;;;;;12.40;7.00;;;10.30;62.30;;;;;;5102113;28;20312;-66
2021/01/08 01:04:03;;;;;;;9.70;6.57;;;10.30;62.60;;;;;;5102090;28;20024;-66
2021/01/08 01:06:31;;;;;;;10.32;6.38;;;10.20;62.50;;;;;;5102060;28;20215;-67
2021/01/08 01:08:57;;;;;;;11.90;7.07;;;10.20;62.40;;;;;;5102063;28;20083;-66
2021/01/08 01:11:24;;;;;;;10.93;7.32;;;10.20;62.40;;;;;;5102074;28;20020;-66
2021/01/08 01:13:52;;;;;;;13.40;8.60;;;10.30;62.40;;;;;;5101943;28;20227;-67
2021/01/08 01:16:19;;;;;;;9.90;6.47;;;10.30;62.20;;;;;;5117792;28;20219;-65
2021/01/08 01:18:49;;;;;;;10.00;7.30;;;10.30;62.10;;;;;;5102001;28;20024;-65
2021/01/08 01:21:16;;;;;;;12.13;7.50;;;10.30;62.20;;;;;;5101984;28;20028;-66
2021/01/08 01:23:42;;;;;;;10.50;6.68;;;10.30;62.10;;;;;;5101941;28;20320;-68
2021/01/08 01:26:07;;;;;;;11.70;7.10;;;10.20;62.50;;;;;;5101874;28;20027;-66
2021/01/08 01:28:34;;;;;;;9.85;7.00;;;10.20;62.40;;;;;;5101858;28;20337;-68
2021/01/08 01:31:01;;;;;;;11.02;7.03;;;10.20;62.50;;;;;;5101874;28;20302;-65
2021/01/08 01:33:27;;;;;;;11.43;7.32;;;10.30;62.50;;;;;;5101785;28;20047;-66
2021/01/08 01:35:53;;;;;;;13.20;7.40;;;10.30;62.50;;;;;;5101826;28;20035;-67
2021/01/08 01:38:20;;;;;;;10.07;7.07;;;10.20;62.50;;;;;;5101734;28;20088;-65
2021/01/08 01:40:45;;;;;;;8.98;6.40;;;10.20;62.40;;;;;;5105269;28;20103;-66
2021/01/08 01:43:11;;;;;;;10.35;6.25;;;10.20;62.30;;;;;;5105576;28;20020;-67
2021/01/08 01:45:37;;;;;;;9.63;6.43;;;10.20;62.10;;;;;;5105592;28;20026;-66
2021/01/08 01:48:03;;;;;;;12.10;7.30;;;10.30;62.20;;;;;;5105568;28;20027;-68
2021/01/08 01:50:29;;;;;;;11.15;6.63;;;10.30;62.40;;;;;;5105449;28;20024;-66
2021/01/08 01:52:55;;;;;;;10.82;7.10;;;10.20;62.20;;;;;;5105479;28;20312;-65
2021/01/08 01:55:22;;;;;;;12.73;6.97;;;10.30;62.00;;;;;;5105310;28;20041;-66
2021/01/08 01:57:52;;;;;;;10.18;6.65;;;10.20;62.00;;;;;;5105329;28;20020;-66
2021/01/08 02:00:19;;;;;;;12.82;7.20;;;10.20;62.00;;;;;;5105304;28;20018;-67
2021/01/08 02:02:59;;;;;;;11.50;7.18;;;10.20;62.10;;;;;;5105323;28;20079;-66
2021/01/08 02:05:27;;;;;;;10.40;6.80;;;10.20;62.30;;;;;;5105267;28;20345;-67
2021/01/08 02:08:00;;;;;;;14.98;7.90;;;10.20;62.40;;;;;;5105251;28;20047;-70
2021/01/08 02:10:35;;;;;;;10.15;6.80;;;10.20;62.40;;;;;;5105098;28;20020;-69
2021/01/08 02:13:01;;;;;;;11.05;7.22;;;10.20;62.70;;;;;;5105092;28;20032;-67
2021/01/08 02:15:28;;;;;;;12.02;7.85;;;10.20;62.50;;;;;;5104814;28;20032;-67
2021/01/08 02:17:55;;;;;;;11.73;6.88;;;10.20;62.30;;;;;;5104970;28;20079;-68
2021/01/08 02:20:21;;;;;;;9.35;6.32;;;10.20;62.20;;;;;;5104890;28;20030;-66
2021/01/08 02:23:14;;;;;;;11.52;7.63;;;10.20;62.20;;;;;;5104872;28;20020;-67
2021/01/08 02:25:40;;;;;;;10.00;6.50;;;10.20;62.00;;;;;;5102274;28;20036;-65
2021/01/08 02:28:24;;;;;;;12.50;6.63;;;10.20;61.90;;;;;;5104745;28;20016;-66
2021/01/08 02:30:51;;;;;;;12.10;6.95;;;10.20;62.20;;;;;;5104742;28;20355;-68
2021/01/08 02:33:18;;;;;;;11.48;6.40;;;10.20;62.30;;;;;;5104581;28;20136;-68
2021/01/08 02:35:47;;;;;;;9.70;6.35;;;10.20;62.60;;;;;;5104648;28;20035;-66
2021/01/08 02:38:15;;;;;;;12.05;6.75;;;10.20;63.10;;;;;;5104626;28;20012;-68
2021/01/08 02:40:44;;;;;;;8.75;6.43;;;10.20;62.50;;;;;;5104623;28;20031;-67
2021/01/08 02:43:12;;;;;;;11.15;6.68;;;10.20;62.60;;;;;;5104507;28;20370;-67
2021/01/08 02:45:39;;;;;;;11.02;7.00;;;10.20;62.40;;;;;;5104461;28;20030;-65
2021/01/08 02:48:05;;;;;;;10.13;6.30;;;10.20;62.40;;;;;;5104418;28;20087;-66
2021/01/08 02:50:30;;;;;;;11.38;6.50;;;10.20;62.30;;;;;;5104290;28;20032;-66
2021/01/08 02:53:04;;;;;;;8.95;5.85;;;10.20;62.40;;;;;;5104295;28;20026;-67
2021/01/08 02:55:31;;;;;;;9.23;6.07;;;10.20;62.30;;;;;;5104181;28;20028;-66
2021/01/08 02:58:02;;;;;;;8.70;5.82;;;10.20;62.40;;;;;;5104177;28;20079;-66
2021/01/08 03:00:29;;;;;;;11.82;6.32;;;10.20;62.30;;;;;;5119947;28;20016;-66
2021/01/08 03:02:57;;;;;;;8.90;6.03;;;10.20;62.20;;;;;;5104163;28;20212;-66
2021/01/08 03:05:27;;;;;;;11.65;6.88;;;10.20;62.20;;;;;;5104075;28;20020;-68
2021/01/08 03:07:53;;;;;;;10.65;6.93;;;10.20;62.20;;;;;;5104447;28;20047;-67
2021/01/08 03:10:19;;;;;;;10.80;6.43;;;10.20;62.30;;;;;;5103927;28;20126;-67
2021/01/08 03:13:03;;;;;;;9.40;6.40;;;10.20;62.30;;;;;;5103950;28;20294;-67
2021/01/08 03:15:29;;;;;;;9.95;6.43;;;10.20;62.40;;;;;;5103651;28;20028;-68
2021/01/08 03:17:55;;;;;;;8.25;6.10;;;10.20;62.80;;;;;;5103818;28;20051;-65
2021/01/08 03:20:20;;;;;;;9.20;5.80;;;10.20;62.60;;;;;;5103757;28;20216;-66
2021/01/08 03:22:46;;;;;;;9.75;6.00;;;10.20;62.50;;;;;;5103710;28;20310;-65
2021/01/08 03:25:12;;;;;;;11.55;7.07;;;10.20;62.30;;;;;;5103652;28;20237;-67
2021/01/08 03:27:38;;;;;;;11.90;7.05;;;10.20;62.20;;;;;;5103619;28;20040;-66
2021/01/08 03:30:05;;;;;;;10.15;6.30;;;10.20;62.10;;;;;;5103619;28;20031;-67
2021/01/08 03:32:31;;;;;;;9.25;6.32;;;10.20;62.20;;;;;;5103502;28;20208;-65
2021/01/08 03:34:57;;;;;;;11.07;7.15;;;10.20;62.30;;;;;;5103370;28;20019;-65
2021/01/08 03:37:23;;;;;;;9.38;6.60;;;10.20;62.30;;;;;;5103457;28;20118;-66
2021/01/08 03:39:48;;;;;;;10.68;7.07;;;10.20;62.40;;;;;;5103350;28;20020;-67
2021/01/08 03:42:14;;;;;;;10.10;6.35;;;10.20;62.20;;;;;;5103305;28;20047;-66
2021/01/08 03:44:40;;;;;;;8.15;5.60;;;10.20;62.40;;;;;;5103537;28;20032;-67
2021/01/08 03:47:05;;;;;;;9.40;6.10;;;10.20;63.10;;;;;;5103262;28;20032;-67
2021/01/08 03:49:37;;;;;;;9.05;6.00;;;10.20;62.50;;;;;;5103211;28;20020;-67
2021/01/08 03:52:07;;;;;;;9.20;6.28;;;10.20;62.60;;;;;;5103178;28;20100;-67
2021/01/08 03:54:34;;;;;;;9.20;6.47;;;10.20;62.20;;;;;;5103031;28;20023;-68
2021/01/08 03:57:00;;;;;;;10.73;6.13;;;10.20;62.30;;;;;;5103050;28;20044;-66
2021/01/08 03:59:26;;;;;;;10.63;6.47;;;10.20;62.40;;;;;;5103057;28;20020;-68
2021/01/08 04:01:52;;;;;;;8.73;6.38;;;10.20;62.30;;;;;;5102490;28;20038;-66
2021/01/08 04:04:18;;;;;;;12.68;7.93;;;10.20;62.20;;;;;;5102908;28;20031;-64
2021/01/08 04:06:43;;;;;;;9.00;5.80;;;10.20;62.20;;;;;;5102891;28;20024;-67
2021/01/08 04:09:09;;;;;;;10.63;5.90;;;10.20;62.20;;;;;;5102793;28;20342;-67
2021/01/08 04:11:35;;;;;;;9.55;6.00;;;10.20;62.40;;;;;;5102817;28;20091;-66
2021/01/08 04:14:01;;;;;;;9.70;6.20;;;10.20;62.40;;;;;;5102502;28;20043;-66
2021/01/08 04:16:38;;;;;;;8.02;6.00;;;10.20;62.50;;;;;;5102751;28;20027;-68
2021/01/08 04:19:04;;;;;;;10.23;6.65;;;10.20;62.90;;;;;;5102760;28;20026;-67
2021/01/08 04:21:29;;;;;;;9.43;5.65;;;10.20;62.80;;;;;;5102703;28;20050;-67
2021/01/08 04:23:55;;;;;;;7.82;5.70;;;10.20;62.80;;;;;;5102584;28;20031;-65
2021/01/08 04:26:21;;;;;;;9.57;6.40;;;10.20;62.50;;;;;;5102589;28;20024;-67
2021/01/08 04:28:47;;;;;;;9.13;6.00;;;10.20;62.60;;;;;;5102584;28;20026;-66
2021/01/08 04:31:13;;;;;;;8.88;5.72;;;10.20;62.20;;;;;;5102531;28;20087;-66
2021/01/08 04:33:42;;;;;;;8.15;5.90;;;10.20;62.00;;;;;;5102405;28;20031;-66
2021/01/08 04:36:09;;;;;;;10.38;6.13;;;10.20;62.20;;;;;;5102458;28;20015;-66
2021/01/08 04:38:36;;;;;;;8.40;5.82;;;10.20;62.30;;;;;;5102451;28;20036;-66
2021/01/08 04:41:02;;;;;;;10.07;5.65;;;10.20;62.50;;;;;;5102357;28;20028;-67
2021/01/08 04:43:28;;;;;;;7.45;5.32;;;10.10;62.50;;;;;;5102377;28;20020;-67
2021/01/08 04:46:01;;;;;;;7.00;5.80;;;10.20;62.60;;;;;;5102332;28;20016;-65
2021/01/08 04:48:27;;;;;;;7.93;5.93;;;10.20;62.50;;;;;;5102284;28;20079;-67
2021/01/08 04:50:58;;;;;;;7.45;5.60;;;10.20;62.50;;;;;;5102284;28;20073;-65
2021/01/08 04:53:26;;;;;;;9.25;6.03;;;10.20;62.60;;;;;;5102229;28;20058;-67
2021/01/08 04:55:52;;;;;;;9.05;6.05;;;10.20;62.60;;;;;;5102160;28;20038;-68
2021/01/08 04:58:19;;;;;;;8.50;5.70;;;10.20;62.60;;;;;;5102088;28;20019;-66
2021/01/08 05:00:45;;;;;;;9.48;6.43;;;10.10;62.60;;;;;;5102199;28;20047;-65
2021/01/08 05:03:10;;;;;;;10.25;5.70;;;10.10;62.40;;;;;;5102115;28;20250;-66
2021/01/08 05:05:36;;;;;;;8.90;5.68;;;10.20;62.30;;;;;;5102089;28;20065;-66
2021/01/08 05:08:02;;;;;;;10.23;6.22;;;10.10;62.30;;;;;;5102098;28;20073;-67
2021/01/08 05:10:27;;;;;;;9.43;5.78;;;10.10;62.30;;;;;;5102035;28;20312;-65
2021/01/08 05:12:53;;;;;;;10.05;5.95;;;10.10;62.30;;;;;;5102011;28;20070;-66
2021/01/08 05:15:24;;;;;;;9.48;6.07;;;10.10;62.30;;;;;;5104643;28;20100;-64
2021/01/08 05:17:50;;;;;;;9.15;5.65;;;10.10;62.50;;;;;;5106409;28;20031;-66
2021/01/08 05:20:16;;;;;;;7.78;5.50;;;10.10;62.60;;;;;;5106119;28;20087;-66
2021/01/08 05:22:42;;;;;;;7.75;5.78;;;10.10;62.70;;;;;;5106025;28;20351;-66
2021/01/08 05:25:09;;;;;;;8.52;5.70;;;10.10;63.30;;;;;;5105988;28;20024;-67
2021/01/08 05:27:36;;;;;;;10.23;6.20;;;10.10;62.60;;;;;;5105986;28;20227;-65
2021/01/08 05:30:23;;;;;;;8.38;6.03;;;10.10;62.50;;;;;;5105947;28;20038;-68
2021/01/08 05:32:57;;;;;;;8.20;5.60;;;10.20;62.30;;;;;;5105839;28;20070;-66
2021/01/08 05:35:24;;;;;;;10.10;6.88;;;10.10;62.20;;;;;;5105664;28;20024;-67
2021/01/08 05:37:53;;;;;;;9.05;5.95;;;10.20;62.20;;;;;;5105777;28;20336;-66
2021/01/08 05:40:25;;;;;;;8.48;5.65;;;10.10;62.40;;;;;;5105685;28;20038;-66
2021/01/08 05:42:59;;;;;;;9.15;6.15;;;10.10;62.30;;;;;;5105682;28;20016;-65
2021/01/08 05:45:26;;;;;;;7.85;5.32;;;10.10;62.40;;;;;;5105623;28;20024;-66
2021/01/08 05:47:54;;;;;;;9.55;5.55;;;10.10;62.50;;;;;;5105546;28;20020;-66
2021/01/08 05:50:22;;;;;;;9.40;6.80;;;10.10;62.40;;;;;;5105522;28;20506;-68
2021/01/08 05:52:55;;;;;;;10.15;6.43;;;10.10;62.60;;;;;;5105448;28;20576;-67
2021/01/08 05:55:21;;;;;;;9.02;5.80;;;10.10;62.70;;;;;;5121198;28;20223;-66
2021/01/08 05:57:50;;;;;;;8.32;5.65;;;10.10;62.40;;;;;;5105451;28;20062;-65
2021/01/08 06:00:19;;;;;;;8.38;5.63;;;10.10;62.30;;;;;;5105421;28;20035;-65
2021/01/08 06:02:46;;;;;;;;;;;10.10;62.20;;;;;;5105735;28;20039;-67
2021/01/08 06:05:13;;;;;;;8.65;6.07;;;10.10;62.30;;;;;;5105288;28;20184;-67
2021/01/08 06:07:44;;;;;;;9.77;6.55;;;10.10;62.90;;;;;;5105126;28;20069;-65
2021/01/08 06:10:15;;;;;;;8.45;6.03;;;10.10;62.30;;;;;;5105217;28;20110;-67
2021/01/08 06:12:42;;;;;;;8.88;6.03;;;10.10;62.40;;;;;;5105090;28;20028;-68
2021/01/08 06:15:11;;;;;;;8.73;6.07;;;10.10;62.30;;;;;;5104174;28;20035;-67
2021/01/08 06:17:38;;;;;;;7.95;5.55;;;10.10;62.40;;;;;;5103834;28;20069;-68
2021/01/08 06:20:07;;;;;;;8.90;6.28;;;10.10;62.40;;;;;;5103825;28;20246;-70
2021/01/08 06:22:40;;;;;;;8.70;5.80;;;10.10;62.50;;;;;;5103759;28;20040;-67
2021/01/08 06:25:07;;;;;;;8.05;6.40;;;10.10;62.60;;;;;;5103308;28;20035;-67
2021/01/08 06:27:34;;;;;;;10.32;6.75;;;10.10;62.60;;;;;;5103669;28;20257;-68
2021/01/08 06:30:06;;;;;;;8.15;6.15;;;10.10;62.80;;;;;;5103611;28;20019;-67
2021/01/08 06:32:32;;;;;;;8.80;5.95;;;10.10;62.70;;;;;;5103593;28;20042;-68
2021/01/08 06:35:07;;;;;;;9.82;6.60;;;10.10;62.20;;;;;;5103449;28;20356;-68
2021/01/08 06:37:41;;;;;;;8.80;6.57;;;10.20;62.20;;;;;;5103554;28;20043;-67
2021/01/08 06:40:08;;;;;;;9.10;6.25;;;10.20;62.10;;;;;;5103502;28;20442;-67
2021/01/08 06:42:44;;;;;;;8.45;5.95;;;10.10;62.20;;;;;;5103510;28;20101;-66
2021/01/08 06:45:16;;;;;;;9.40;6.82;;;10.10;62.20;;;;;;5103690;28;20091;-66
2021/01/08 06:47:44;;;;;;;9.35;6.40;;;10.10;62.40;;;;;;5103442;28;20083;-67
2021/01/08 06:50:19;;;;;;;9.45;6.47;;;10.10;62.30;;;;;;5103289;28;20028;-67
2021/01/08 06:52:49;;;;;;;9.05;6.38;;;10.10;62.40;;;;;;5103242;28;20035;-65
2021/01/08 06:55:17;;;;;;;8.80;6.53;;;10.10;62.40;;;;;;5103207;28;20074;-65
2021/01/08 06:57:54;;;;;;;8.48;6.03;;;10.10;62.30;;;;;;5103207;28;20008;-68
2021/01/08 07:00:28;;;;;;;9.60;5.60;;;10.10;62.50;;;;;;5103235;28;20027;-66
2021/01/08 07:03:06;;;;;;;9.68;6.28;;;10.10;62.30;;;;;;5103151;28;20023;-66
2021/01/08 07:05:32;;;;;;;10.43;6.25;;;10.10;62.50;;;;;;5103078;28;20012;-65
2021/01/08 07:07:58;;;;;;;6.88;5.15;;;10.10;62.40;;;;;;5103079;28;20062;-68
2021/01/08 07:10:24;;;;;;;9.05;6.25;;;10.10;62.40;;;;;;5103009;28;20024;-66
2021/01/08 07:12:54;;;;;;;10.35;6.75;;;10.10;62.30;;;;;;5102962;28;20101;-68
2021/01/08 07:15:20;;;;;;;10.20;6.57;;;10.10;62.30;;;;;;5076655;28;758994;-66
2021/01/08 07:17:55;;;;;;;9.40;6.85;;;10.10;62.30;;;;;;5103922;28;20032;-64
2021/01/08 07:20:21;;;;;;;11.02;7.05;;;10.10;62.40;;;;;;5103823;28;20047;-65
2021/01/08 07:22:54;;;;;;;8.85;6.63;;;10.10;62.80;;;;;;5103823;28;20039;-65
2021/01/08 07:25:24;;;;;;;9.50;6.38;;;10.10;62.60;;;;;;5103757;28;20055;-66
2021/01/08 07:27:50;;;;;;;9.07;6.85;;;10.10;62.50;;;;;;5103612;28;20019;-65
2021/01/08 07:30:17;;;;;;;8.27;6.57;;;10.10;62.50;;;;;;5103609;28;20024;-66
2021/01/08 07:32:43;;;;;;;9.32;5.95;;;10.10;62.60;;;;;;5103553;28;20023;-69
2021/01/08 07:35:18;;;;;;;8.90;6.20;;;10.10;62.80;;;;;;5103414;28;20027;-64
2021/01/08 07:38:00;;;;;;;11.52;6.78;;;10.10;62.60;;;;;;5102667;28;20030;-68
2021/01/08 07:40:27;;;;;;;8.95;6.22;;;10.10;62.30;;;;;;5103434;28;20031;-67
2021/01/08 07:42:56;;;;;;;7.60;5.85;;;10.10;62.10;;;;;;5103395;28;20012;-66
2021/01/08 07:45:21;;;;;;;8.50;5.70;;;10.20;62.10;;;;;;5103316;28;20027;-67
2021/01/08 07:47:47;;;;;;;7.82;5.88;;;10.10;62.20;;;;;;5103262;28;20220;-67
2021/01/08 07:50:15;;;;;;;7.97;5.97;;;10.10;62.30;;;;;;5103273;28;20020;-67
2021/01/08 07:52:43;;;;;;;9.00;6.05;;;10.10;62.50;;;;;;5103240;28;20019;-66
2021/01/08 07:55:10;;;;;;;9.90;7.25;;;10.10;62.30;;;;;;5103031;28;20312;-69
2021/01/08 07:58:02;;;;;;;9.52;5.80;;;10.10;62.20;;;;;;5103101;28;20227;-65
2021/01/08 08:00:28;;;;;;;9.68;7.00;;;10.10;62.40;;;;;;5103004;28;20308;-66
2021/01/08 08:02:56;;;;;;;9.85;6.55;;;10.10;62.40;;;;;;5102989;28;20047;-67
2021/01/08 08:05:23;;;;;;;8.55;6.05;;;10.00;62.30;;;;;;5102982;28;20024;-67
2021/01/08 08:07:57;;;;;;;10.32;6.82;;;10.10;62.50;;;;;;5101668;28;20038;-66
2021/01/08 08:10:24;;;;;;;8.82;6.55;;;10.10;62.50;;;;;;5102980;28;20016;-66
2021/01/08 08:12:51;;;;;;;10.27;6.75;;;10.10;62.30;;;;;;5102823;28;20027;-67
2021/01/08 08:15:17;;;;;;;10.13;7.22;;;10.10;62.40;;;;;;5102515;28;20032;-67
2021/01/08 08:17:47;;;;;;;7.90;5.95;;;10.10;62.10;;;;;;5118937;28;20023;-67
2021/01/08 08:20:22;;;;;;;11.85;7.55;;;10.10;62.10;;;;;;5102669;28;20204;-67
2021/01/08 08:22:50;;;;;;;10.35;7.20;;;10.10;62.30;;;;;;5102646;28;20012;-68
2021/01/08 08:25:29;;;;;;;8.85;6.07;;;10.10;62.20;;;;;;5102624;28;20225;-66
2021/01/08 08:27:57;;;;;;;10.85;7.05;;;10.10;62.40;;;;;;5102606;28;20032;-68
2021/01/08 08:30:24;;;;;;;12.52;6.72;;;10.10;62.40;;;;;;5102528;28;20026;-65
2021/01/08 08:32:50;;;;;;;11.48;8.13;;;10.10;62.50;;;;;;5102483;28;20032;-66
2021/01/08 08:35:16;;;;;;;10.10;6.60;;;10.10;62.60;;;;;;5102401;28;20031;-67
2021/01/08 08:37:53;;;;;;;11.40;7.30;;;10.10;62.60;;;;;;5102405;28;20023;-68
2021/01/08 08:40:23;;;;;;;9.48;6.00;;;10.10;62.60;;;;;;5102366;28;20328;-66
2021/01/08 08:43:00;;;;;;;8.65;7.00;;;10.10;62.40;;;;;;5102347;28;20028;-65
2021/01/08 08:45:27;;;;;;;10.38;6.57;;;10.10;62.40;;;;;;5102324;28;20037;-66
2021/01/08 08:47:58;;;;;;;12.32;7.80;;;10.10;62.30;;;;;;5102156;28;20020;-67
2021/01/08 08:50:24;;;;;;;11.15;8.10;;;10.10;62.20;;;;;;5101863;28;20308;-68
2021/01/08 08:52:51;;;;;;;11.88;7.70;;;10.10;62.10;;;;;;5102229;28;20043;-66
2021/01/08 08:55:26;;;;;;;13.98;7.68;;;10.10;62.30;;;;;;5102060;28;20020;-68
2021/01/08 08:58:10;;;;;;;10.98;6.65;;;10.10;62.30;;;;;;5102178;28;20023;-65
2021/01/08 09:00:41;;;;;;;11.32;7.22;;;10.10;62.30;;;;;;5102191;28;20339;-66
2021/01/08 09:03:20;;;;;;;10.23;6.55;;;10.10;62.30;;;;;;5102136;28;20020;-67
2021/01/08 09:05:51;;;;;;;11.07;7.20;;;10.10;62.20;;;;;;5102081;28;20027;-66
2021/01/08 09:08:37;;;;;;;11.40;8.07;;;10.10;62.30;;;;;;5102013;28;20091;-66
2021/01/08 09:11:29;;;;;;;9.80;6.95;;;10.10;62.40;;;;;;5102113;28;20046;-65
2021/01/08 09:14:04;;;;;;;13.82;8.57;;;10.10;62.40;;;;;;5101844;28;20058;-66
2021/01/08 09:16:34;;;;;;;11.85;7.78;;;10.10;62.40;;;;;;5101851;28;20101;-66
2021/01/08 09:19:11;;;;;;;11.65;7.22;;;10.10;62.40;;;;;;5101968;28;20032;-67
2021/01/08 09:21:48;;;;;;;12.05;8.75;;;10.20;62.30;;;;;;5101926;28;20020;-66
2021/01/08 09:24:18;;;;;;;11.90;7.43;;;10.20;62.20;;;;;;5101958;28;20227;-67
2021/01/08 09:26:44;;;;;;;13.70;8.07;;;10.10;62.30;;;;;;5102212;28;20149;-68
2021/01/08 09:29:11;;;;;;;11.27;7.80;;;10.10;62.10;;;;;;5101838;28;20062;-67
2021/01/08 09:31:40;;;;;;;13.05;8.30;;;10.10;62.20;;;;;;5102092;28;20103;-67
2021/01/08 09:34:06;;;;;;;10.82;7.32;;;10.10;62.30;;;;;;5101796;28;20301;-66
2021/01/08 09:36:34;;;;;;;12.80;8.63;;;10.10;62.30;;;;;;5101798;28;20320;-67
2021/01/08 09:39:11;;;;;;;13.38;8.45;;;10.10;62.50;;;;;;5101773;28;20023;-68
2021/01/08 09:41:43;;;;;;;10.30;7.65;;;10.10;62.50;;;;;;5101811;28;20020;-67
2021/01/08 09:44:11;;;;;;;11.65;7.88;;;10.10;62.60;;;;;;5101726;28;20031;-64
2021/01/08 09:46:57;;;;;;;12.35;8.50;;;10.10;62.60;;;;;;5101704;28;20054;-66
2021/01/08 09:49:23;;;;;;;13.82;8.18;;;10.10;62.40;;;;;;5101958;28;20028;-67
2021/01/08 09:52:00;;;;;;;9.35;6.93;;;10.10;63.00;;;;;;5101659;28;20020;-66
2021/01/08 09:54:45;;;;;;;13.05;8.18;;;10.10;62.30;;;;;;5101625;28;20028;-66
2021/01/08 09:57:27;;;;;;;11.02;7.70;;;10.10;62.30;;;;;;5101656;28;20024;-65
2021/01/08 10:00:00;;;;;;;11.80;7.70;;;10.10;62.30;;;;;;5102004;28;20065;-67
2021/01/08 10:02:47;;;;;;;12.05;8.57;;;10.10;62.30;;;;;;5105332;28;20051;-66
2021/01/08 10:05:18;;;;;;;13.07;8.02;;;10.10;62.20;;;;;;5105379;28;20088;-68
2021/01/08 10:07:45;;;;;;;12.52;8.15;;;10.10;62.30;;;;;;5105277;28;20039;-67
2021/01/08 10:10:13;;;;;;;14.23;8.65;;;10.10;62.40;;;;;;5105150;28;20326;-67
2021/01/08 10:12:49;;;;;;;10.73;7.53;;;10.10;62.40;;;;;;5105095;28;20048;-66
2021/01/08 10:15:18;;;;;;;11.25;7.97;;;10.10;62.50;;;;;;5104902;28;20036;-66
2021/01/08 10:17:53;;;;;;;12.25;8.10;;;10.10;62.30;;;;;;5105071;28;20059;-67
2021/01/08 10:20:21;;;;;;;11.65;7.88;;;10.20;62.30;;;;;;5104986;28;20016;-66
2021/01/08 10:22:50;;;;;;;10.27;7.47;;;10.10;62.50;;;;;;5105023;28;20027;-64
2021/01/08 10:25:43;;;;;;;11.63;7.97;;;10.20;62.40;;;;;;5104897;28;20342;-66
2021/01/08 10:28:23;;;;;;;12.70;8.38;;;10.20;62.20;;;;;;5103684;28;20032;-67
2021/01/08 10:30:55;;;;;;;9.98;7.32;;;10.20;62.30;;;;;;5104821;28;20039;-68
2021/01/08 10:33:22;;;;;;;10.85;7.07;;;10.10;62.20;;;;;;5104736;28;20101;-66
2021/01/08 10:35:50;;;;;;;11.32;7.85;;;10.20;62.20;;;;;;5104593;28;20027;-66
2021/01/08 10:38:16;;;;;;;12.85;7.60;;;10.20;62.30;;;;;;5104645;28;20343;-66
2021/01/08 10:40:41;;;;;;;13.88;8.93;;;10.20;62.40;;;;;;5104584;28;20061;-67
2021/01/08 10:43:07;;;;;;;13.82;9.20;;;10.20;62.40;;;;;;5104519;28;20016;-68
2021/01/08 10:45:33;;;;;;;11.77;8.82;;;10.10;62.30;;;;;;5104548;28;20228;-67
2021/01/08 10:47:59;;;;;;;13.75;8.27;;;10.20;62.40;;;;;;5104434;28;20024;-65
2021/01/08 10:50:25;;;;;;;10.90;8.38;;;10.20;62.30;;;;;;5104396;28;20043;-66
2021/01/08 10:52:50;;;;;;;12.10;7.95;;;10.10;62.30;;;;;;5104335;28;20254;-66
2021/01/08 10:55:16;;;;;;;12.48;8.15;;;10.10;62.40;;;;;;5104287;28;20020;-66
2021/01/08 10:57:42;;;;;;;11.75;7.57;;;10.20;62.50;;;;;;5104299;28;20058;-66
2021/01/08 11:00:09;;;;;;;11.30;7.38;;;10.20;62.50;;;;;;5104168;28;20342;-66
2021/01/08 11:02:36;;;;;;;10.90;7.47;;;10.20;62.40;;;;;;5104171;28;20225;-65
2021/01/08 11:05:04;;;;;;;13.23;8.57;;;10.10;62.30;;;;;;5104121;28;20222;-66
2021/01/08 11:07:33;;;;;;;7.38;5.53;;;10.20;62.20;;;;;;5104143;28;20051;-67
2021/01/08 11:09:59;;;;;;;14.73;8.73;;;10.20;62.40;;;;;;5104051;28;20032;-67
2021/01/08 11:12:26;;;;;;;15.13;8.65;;;10.20;62.30;;;;;;5102753;28;20032;-64
2021/01/08 11:14:53;;;;;;;13.80;9.00;;;10.20;62.20;;;;;;5103682;28;20342;-66
2021/01/08 11:17:19;;;;;;;11.68;7.85;;;10.20;62.30;;;;;;5103832;28;20246;-65
2021/01/08 11:19:44;;;;;;;10.90;7.60;;;10.20;62.30;;;;;;5103821;28;20090;-66
2021/01/08 11:22:10;;;;;;;13.90;8.77;;;10.20;62.30;;;;;;5103802;28;20023;-66
2021/01/08 11:24:37;;;;;;;11.73;7.47;;;10.20;62.30;;;;;;5103764;28;20027;-67
2021/01/08 11:27:04;;;;;;;11.23;7.85;;;10.20;62.30;;;;;;5103717;28;20020;-67
2021/01/08 11:29:30;;;;;;;11.38;7.30;;;10.20;62.30;;;;;;5103674;28;20051;-66
2021/01/08 11:31:56;;;;;;;11.40;7.80;;;10.30;62.30;;;;;;5103649;28;20340;-65
2021/01/08 11:34:22;;;;;;;13.00;8.32;;;10.30;62.20;;;;;;5103475;28;20083;-67
2021/01/08 11:36:48;;;;;;;10.63;7.78;;;10.30;62.10;;;;;;5103533;28;20020;-66
2021/01/08 11:39:15;;;;;;;11.05;7.47;;;10.30;62.20;;;;;;5103484;28;20012;-67
2021/01/08 11:41:41;;;;;;;11.43;7.65;;;10.30;62.20;;;;;;5103408;28;20027;-65
2021/01/08 11:44:07;;;;;;;12.50;8.15;;;10.30;62.10;;;;;;5103404;28;20026;-65
2021/01/08 11:46:32;;;;;;;10.45;7.72;;;10.30;62.20;;;;;;5103285;28;20024;-67
2021/01/08 11:48:58;;;;;;;10.57;7.03;;;10.30;62.30;;;;;;5103293;28;20023;-65
2021/01/08 11:51:24;;;;;;;12.63;7.65;;;10.30;62.10;;;;;;5103281;28;20031;-67
2021/01/08 11:53:52;;;;;;;10.27;7.45;;;10.30;62.20;;;;;;5103123;28;20028;-68
2021/01/08 11:56:25;;;;;;;11.05;7.38;;;10.30;62.20;;;;;;5103107;28;20018;-65
2021/01/08 11:58:51;;;;;;;11.70;8.35;;;10.30;62.30;;;;;;5103123;28;20035;-66
2021/01/08 12:01:16;;;;;;;12.57;8.50;;;10.20;62.30;;;;;;5103075;28;20196;-64
2021/01/08 12:03:42;;;;;;;8.95;6.47;;;10.20;62.30;;;;;;5103008;28;20019;-68
2021/01/08 12:06:09;;;;;;;11.65;7.50;;;10.30;62.50;;;;;;5102911;28;20204;-66
2021/01/08 12:08:38;;;;;;;12.90;7.82;;;10.30;62.40;;;;;;5102939;28;20087;-66
2021/01/08 12:11:04;;;;;;;11.13;7.50;;;10.30;62.30;;;;;;5102956;28;20062;-68
2021/01/08 12:13:30;;;;;;;10.10;6.80;;;10.20;62.30;;;;;;5102800;28;20027;-66
2021/01/08 12:15:56;;;;;;;10.32;7.07;;;10.30;62.40;;;;;;5102629;28;20047;-66
2021/01/08 12:18:22;;;;;;;11.30;7.60;;;10.30;62.40;;;;;;5102784;28;20020;-68
2021/01/08 12:20:48;;;;;;;12.00;7.75;;;10.30;62.50;;;;;;5102672;28;20046;-67
2021/01/08 12:23:14;;;;;;;11.35;7.22;;;10.30;62.50;;;;;;5102327;28;20047;-68
2021/01/08 12:25:42;;;;;;;10.65;7.53;;;10.30;62.40;;;;;;5102597;28;20061;-65
2021/01/08 12:28:09;;;;;;;11.13;7.55;;;10.30;63.10;;;;;;5102528;28;20213;-65
2021/01/08 12:30:35;;;;;;;9.90;6.72;;;10.30;62.50;;;;;;5102567;28;20028;-64
2021/01/08 12:33:02;;;;;;;11.18;8.30;;;10.30;62.40;;;;;;5102494;28;20335;-68
2021/01/08 12:35:28;;;;;;;13.13;7.40;;;10.30;62.40;;;;;;5102337;28;20028;-67
2021/01/08 12:37:54;;;;;;;8.05;6.55;;;10.20;62.40;;;;;;5102720;28;20020;-68
2021/01/08 12:40:21;;;;;;;10.27;6.88;;;10.30;62.50;;;;;;5102461;28;20366;-67
2021/01/08 12:42:52;;;;;;;9.43;7.18;;;10.20;62.50;;;;;;5102397;28;20020;-65
2021/01/08 12:45:18;;;;;;;10.38;6.88;;;10.30;62.60;;;;;;5102291;28;20028;-65
2021/01/08 12:47:45;;;;;;;12.65;8.07;;;10.30;62.40;;;;;;5102336;28;20028;-67